sensor_id;sensor_type;location;lat;lon;timestamp;temperature;humidity
11083;DHT22;5595;50.186;8.468;2023-06-10T00:00:42;20.50;83.20
11083;DHT22;5595;50.186;8.468;2023-06-10T00:03:10;20.40;83.10
11083;DHT22;5595;50.186;8.468;2023-06-10T00:05:37;20.40;83.20
11083;DHT22;5595;50.186;8.468;2023-06-10T00:08:05;20.40;83.00
11083;DHT22;5595;50.186;8.468;2023-06-10T00:10:35;20.40;83.00
11083;DHT22;5595;50.186;8.468;2023-06-10T00:13:02;20.40;82.70
11083;DHT22;5595;50.186;8.468;2023-06-10T00:15:29;20.40;82.60
11083;DHT22;5595;50.186;8.468;2023-06-10T00:17:56;20.40;82.50
11083;DHT22;5595;50.186;8.468;2023-06-10T00:20:23;20.40;82.40
11083;DHT22;5595;50.186;8.468;2023-06-10T00:22:50;20.30;82.20
11083;DHT22;5595;50.186;8.468;2023-06-10T00:25:18;20.30;82.10
11083;DHT22;5595;50.186;8.468;2023-06-10T00:27:46;20.30;82.10
11083;DHT22;5595;50.186;8.468;2023-06-10T00:30:13;20.20;82.00
11083;DHT22;5595;50.186;8.468;2023-06-10T00:32:40;20.20;82.00
11083;DHT22;5595;50.186;8.468;2023-06-10T00:35:10;20.20;81.80
11083;DHT22;5595;50.186;8.468;2023-06-10T00:37:36;20.10;81.60
11083;DHT22;5595;50.186;8.468;2023-06-10T00:40:05;20.10;81.50
11083;DHT22;5595;50.186;8.468;2023-06-10T00:42:34;20.10;81.30
11083;DHT22;5595;50.186;8.468;2023-06-10T00:45:03;20.10;81.20
11083;DHT22;5595;50.186;8.468;2023-06-10T00:47:31;20.10;81.00
11083;DHT22;5595;50.186;8.468;2023-06-10T00:49:58;20.10;80.80
11083;DHT22;5595;50.186;8.468;2023-06-10T00:52:27;20.10;80.60
11083;DHT22;5595;50.186;8.468;2023-06-10T00:54:55;20.10;80.40
11083;DHT22;5595;50.186;8.468;2023-06-10T00:57:21;20.10;80.00
11083;DHT22;5595;50.186;8.468;2023-06-10T00:59:49;20.10;79.80
11083;DHT22;5595;50.186;8.468;2023-06-10T01:02:17;20.10;79.40
11083;DHT22;5595;50.186;8.468;2023-06-10T01:04:44;20.10;79.20
11083;DHT22;5595;50.186;8.468;2023-06-10T01:07:23;20.10;79.00
11083;DHT22;5595;50.186;8.468;2023-06-10T01:09:55;20.10;78.90
11083;DHT22;5595;50.186;8.468;2023-06-10T01:12:31;20.10;78.60
11083;DHT22;5595;50.186;8.468;2023-06-10T01:14:59;20.10;78.50
11083;DHT22;5595;50.186;8.468;2023-06-10T01:17:28;20.00;78.30
11083;DHT22;5595;50.186;8.468;2023-06-10T01:19:57;19.90;78.30
11083;DHT22;5595;50.186;8.468;2023-06-10T01:22:27;19.90;78.20
11083;DHT22;5595;50.186;8.468;2023-06-10T01:24:54;19.90;78.20
11083;DHT22;5595;50.186;8.468;2023-06-10T01:27:30;19.90;77.80
11083;DHT22;5595;50.186;8.468;2023-06-10T01:30:04;19.90;77.70
11083;DHT22;5595;50.186;8.468;2023-06-10T01:32:37;19.90;77.70
11083;DHT22;5595;50.186;8.468;2023-06-10T01:35:08;19.90;77.50
11083;DHT22;5595;50.186;8.468;2023-06-10T01:37:38;19.90;77.20
11083;DHT22;5595;50.186;8.468;2023-06-10T01:40:07;19.90;77.10
11083;DHT22;5595;50.186;8.468;2023-06-10T01:42:35;19.90;77.10
11083;DHT22;5595;50.186;8.468;2023-06-10T01:45:02;19.80;77.00
11083;DHT22;5595;50.186;8.468;2023-06-10T01:47:29;19.80;77.00
11083;DHT22;5595;50.186;8.468;2023-06-10T01:49:55;19.80;77.00
11083;DHT22;5595;50.186;8.468;2023-06-10T01:52:22;19.80;77.00
11083;DHT22;5595;50.186;8.468;2023-06-10T01:54:50;19.70;76.90
11083;DHT22;5595;50.186;8.468;2023-06-10T01:57:17;19.70;76.90
11083;DHT22;5595;50.186;8.468;2023-06-10T01:59:44;19.70;76.90
11083;DHT22;5595;50.186;8.468;2023-06-10T02:02:12;19.70;76.90
11083;DHT22;5595;50.186;8.468;2023-06-10T02:04:39;19.60;76.80
11083;DHT22;5595;50.186;8.468;2023-06-10T02:07:06;19.60;76.70
11083;DHT22;5595;50.186;8.468;2023-06-10T02:09:33;19.60;76.70
11083;DHT22;5595;50.186;8.468;2023-06-10T02:12:03;19.60;76.80
11083;DHT22;5595;50.186;8.468;2023-06-10T02:14:32;19.50;76.70
11083;DHT22;5595;50.186;8.468;2023-06-10T02:16:59;19.50;76.70
11083;DHT22;5595;50.186;8.468;2023-06-10T02:19:29;19.40;76.80
11083;DHT22;5595;50.186;8.468;2023-06-10T02:21:56;19.40;76.90
11083;DHT22;5595;50.186;8.468;2023-06-10T02:24:23;19.40;77.10
11083;DHT22;5595;50.186;8.468;2023-06-10T02:26:50;19.30;77.00
11083;DHT22;5595;50.186;8.468;2023-06-10T02:29:18;19.30;77.10
11083;DHT22;5595;50.186;8.468;2023-06-10T02:31:45;19.30;77.20
11083;DHT22;5595;50.186;8.468;2023-06-10T02:34:15;19.30;77.20
11083;DHT22;5595;50.186;8.468;2023-06-10T02:36:42;19.20;77.20
11083;DHT22;5595;50.186;8.468;2023-06-10T02:39:09;19.20;77.20
11083;DHT22;5595;50.186;8.468;2023-06-10T02:41:36;19.20;77.40
11083;DHT22;5595;50.186;8.468;2023-06-10T02:44:03;19.20;77.50
11083;DHT22;5595;50.186;8.468;2023-06-10T02:46:32;19.20;77.40
11083;DHT22;5595;50.186;8.468;2023-06-10T02:48:59;19.20;77.40
11083;DHT22;5595;50.186;8.468;2023-06-10T02:51:27;19.10;77.40
11083;DHT22;5595;50.186;8.468;2023-06-10T02:53:54;19.10;77.60
11083;DHT22;5595;50.186;8.468;2023-06-10T02:56:21;19.10;77.60
11083;DHT22;5595;50.186;8.468;2023-06-10T02:58:50;19.00;77.60
11083;DHT22;5595;50.186;8.468;2023-06-10T03:01:20;19.00;77.80
11083;DHT22;5595;50.186;8.468;2023-06-10T03:03:48;19.00;77.90
11083;DHT22;5595;50.186;8.468;2023-06-10T03:06:16;19.00;77.80
11083;DHT22;5595;50.186;8.468;2023-06-10T03:08:43;19.00;78.10
11083;DHT22;5595;50.186;8.468;2023-06-10T03:11:11;19.00;78.30
11083;DHT22;5595;50.186;8.468;2023-06-10T03:13:38;19.00;78.50
11083;DHT22;5595;50.186;8.468;2023-06-10T03:16:05;18.90;78.40
11083;DHT22;5595;50.186;8.468;2023-06-10T03:18:33;18.90;79.40
11083;DHT22;5595;50.186;8.468;2023-06-10T03:21:01;18.80;78.70
11083;DHT22;5595;50.186;8.468;2023-06-10T03:23:29;18.80;79.00
11083;DHT22;5595;50.186;8.468;2023-06-10T03:25:55;18.60;79.00
11083;DHT22;5595;50.186;8.468;2023-06-10T03:28:22;18.60;79.40
11083;DHT22;5595;50.186;8.468;2023-06-10T03:30:49;18.60;79.70
11083;DHT22;5595;50.186;8.468;2023-06-10T03:33:17;18.60;80.00
11083;DHT22;5595;50.186;8.468;2023-06-10T03:35:44;18.60;80.20
11083;DHT22;5595;50.186;8.468;2023-06-10T03:38:12;18.60;80.50
11083;DHT22;5595;50.186;8.468;2023-06-10T03:40:38;18.60;80.50
11083;DHT22;5595;50.186;8.468;2023-06-10T03:43:05;18.60;80.50
11083;DHT22;5595;50.186;8.468;2023-06-10T03:45:32;18.60;80.60
11083;DHT22;5595;50.186;8.468;2023-06-10T03:47:59;18.60;80.70
11083;DHT22;5595;50.186;8.468;2023-06-10T03:50:26;18.60;80.90
11083;DHT22;5595;50.186;8.468;2023-06-10T03:52:53;18.60;81.20
11083;DHT22;5595;50.186;8.468;2023-06-10T03:55:21;18.50;81.20
11083;DHT22;5595;50.186;8.468;2023-06-10T03:57:49;18.60;81.60
11083;DHT22;5595;50.186;8.468;2023-06-10T04:00:17;18.70;81.70
11083;DHT22;5595;50.186;8.468;2023-06-10T04:02:46;18.80;81.40
11083;DHT22;5595;50.186;8.468;2023-06-10T04:05:15;18.90;81.00
11083;DHT22;5595;50.186;8.468;2023-06-10T04:07:43;18.90;81.00
11083;DHT22;5595;50.186;8.468;2023-06-10T04:10:10;19.00;81.00
11083;DHT22;5595;50.186;8.468;2023-06-10T04:12:38;19.00;81.00
11083;DHT22;5595;50.186;8.468;2023-06-10T04:15:06;19.00;81.00
11083;DHT22;5595;50.186;8.468;2023-06-10T04:17:33;18.90;81.00
11083;DHT22;5595;50.186;8.468;2023-06-10T04:20:00;18.90;81.40
11083;DHT22;5595;50.186;8.468;2023-06-10T04:22:28;18.90;81.50
11083;DHT22;5595;50.186;8.468;2023-06-10T04:24:54;18.90;81.70
11083;DHT22;5595;50.186;8.468;2023-06-10T04:27:21;18.90;81.80
11083;DHT22;5595;50.186;8.468;2023-06-10T04:29:49;18.90;81.80
11083;DHT22;5595;50.186;8.468;2023-06-10T04:32:16;18.90;82.10
11083;DHT22;5595;50.186;8.468;2023-06-10T04:34:43;18.80;82.30
11083;DHT22;5595;50.186;8.468;2023-06-10T04:37:09;18.90;82.70
11083;DHT22;5595;50.186;8.468;2023-06-10T04:39:36;18.90;82.80
11083;DHT22;5595;50.186;8.468;2023-06-10T04:42:03;18.80;82.90
11083;DHT22;5595;50.186;8.468;2023-06-10T04:44:30;18.90;83.20
11083;DHT22;5595;50.186;8.468;2023-06-10T04:46:58;18.90;83.30
11083;DHT22;5595;50.186;8.468;2023-06-10T04:49:25;19.00;83.30
11083;DHT22;5595;50.186;8.468;2023-06-10T04:51:52;19.00;83.10
11083;DHT22;5595;50.186;8.468;2023-06-10T04:54:19;19.10;83.50
11083;DHT22;5595;50.186;8.468;2023-06-10T04:56:45;19.20;83.80
11083;DHT22;5595;50.186;8.468;2023-06-10T04:59:12;19.30;84.10
11083;DHT22;5595;50.186;8.468;2023-06-10T05:01:40;19.30;84.20
11083;DHT22;5595;50.186;8.468;2023-06-10T05:04:08;19.40;84.30
11083;DHT22;5595;50.186;8.468;2023-06-10T05:06:35;19.50;84.50
11083;DHT22;5595;50.186;8.468;2023-06-10T05:09:02;19.60;84.60
11083;DHT22;5595;50.186;8.468;2023-06-10T05:11:29;19.70;84.80
11083;DHT22;5595;50.186;8.468;2023-06-10T05:13:56;19.80;84.80
11083;DHT22;5595;50.186;8.468;2023-06-10T05:16:22;19.90;84.70
11083;DHT22;5595;50.186;8.468;2023-06-10T05:18:49;20.10;84.50
11083;DHT22;5595;50.186;8.468;2023-06-10T05:21:18;20.20;84.50
11083;DHT22;5595;50.186;8.468;2023-06-10T05:23:46;20.30;84.10
11083;DHT22;5595;50.186;8.468;2023-06-10T05:26:12;20.40;84.30
11083;DHT22;5595;50.186;8.468;2023-06-10T05:28:39;20.40;84.30
11083;DHT22;5595;50.186;8.468;2023-06-10T05:31:07;20.50;84.30
11083;DHT22;5595;50.186;8.468;2023-06-10T05:33:33;20.60;84.40
11083;DHT22;5595;50.186;8.468;2023-06-10T05:36:00;20.60;84.50
11083;DHT22;5595;50.186;8.468;2023-06-10T05:38:28;20.70;84.60
11083;DHT22;5595;50.186;8.468;2023-06-10T05:40:55;20.80;84.80
11083;DHT22;5595;50.186;8.468;2023-06-10T05:43:24;20.80;85.20
11083;DHT22;5595;50.186;8.468;2023-06-10T05:45:51;20.80;85.10
11083;DHT22;5595;50.186;8.468;2023-06-10T05:48:17;20.80;84.70
11083;DHT22;5595;50.186;8.468;2023-06-10T05:50:45;20.90;84.70
11083;DHT22;5595;50.186;8.468;2023-06-10T05:53:13;21.00;83.90
11083;DHT22;5595;50.186;8.468;2023-06-10T05:55:43;21.10;83.90
11083;DHT22;5595;50.186;8.468;2023-06-10T05:58:10;21.30;83.20
11083;DHT22;5595;50.186;8.468;2023-06-10T06:00:38;21.30;82.20
11083;DHT22;5595;50.186;8.468;2023-06-10T06:03:06;21.50;82.50
11083;DHT22;5595;50.186;8.468;2023-06-10T06:05:34;21.60;81.80
11083;DHT22;5595;50.186;8.468;2023-06-10T06:08:03;21.60;81.30
11083;DHT22;5595;50.186;8.468;2023-06-10T06:10:30;21.70;80.90
11083;DHT22;5595;50.186;8.468;2023-06-10T06:12:58;21.80;80.90
11083;DHT22;5595;50.186;8.468;2023-06-10T06:15:25;21.90;80.20
11083;DHT22;5595;50.186;8.468;2023-06-10T06:17:52;22.00;80.20
11083;DHT22;5595;50.186;8.468;2023-06-10T06:20:18;22.00;80.00
11083;DHT22;5595;50.186;8.468;2023-06-10T06:22:45;22.10;79.50
11083;DHT22;5595;50.186;8.468;2023-06-10T06:25:12;22.20;79.60
11083;DHT22;5595;50.186;8.468;2023-06-10T06:27:40;22.20;79.20
11083;DHT22;5595;50.186;8.468;2023-06-10T06:30:09;22.30;79.50
11083;DHT22;5595;50.186;8.468;2023-06-10T06:32:37;22.40;78.80
11083;DHT22;5595;50.186;8.468;2023-06-10T06:35:04;22.40;78.10
11083;DHT22;5595;50.186;8.468;2023-06-10T06:37:33;22.40;78.50
11083;DHT22;5595;50.186;8.468;2023-06-10T06:40:00;22.50;78.10
11083;DHT22;5595;50.186;8.468;2023-06-10T06:42:27;22.50;77.90
11083;DHT22;5595;50.186;8.468;2023-06-10T06:44:54;22.70;78.00
11083;DHT22;5595;50.186;8.468;2023-06-10T06:47:22;22.80;77.70
11083;DHT22;5595;50.186;8.468;2023-06-10T06:49:49;22.90;78.50
11083;DHT22;5595;50.186;8.468;2023-06-10T06:52:16;23.00;77.50
11083;DHT22;5595;50.186;8.468;2023-06-10T06:54:42;23.00;77.30
11083;DHT22;5595;50.186;8.468;2023-06-10T06:57:09;23.10;77.20
11083;DHT22;5595;50.186;8.468;2023-06-10T06:59:36;23.10;77.40
11083;DHT22;5595;50.186;8.468;2023-06-10T07:02:03;23.20;77.30
11083;DHT22;5595;50.186;8.468;2023-06-10T07:04:31;23.30;77.10
11083;DHT22;5595;50.186;8.468;2023-06-10T07:06:58;23.40;77.10
11083;DHT22;5595;50.186;8.468;2023-06-10T07:09:25;23.50;76.60
11083;DHT22;5595;50.186;8.468;2023-06-10T07:11:52;23.50;76.60
11083;DHT22;5595;50.186;8.468;2023-06-10T07:14:18;23.70;76.50
11083;DHT22;5595;50.186;8.468;2023-06-10T07:16:45;23.80;76.00
11083;DHT22;5595;50.186;8.468;2023-06-10T07:19:13;23.90;76.00
11083;DHT22;5595;50.186;8.468;2023-06-10T07:21:42;23.90;76.00
11083;DHT22;5595;50.186;8.468;2023-06-10T07:24:08;24.00;76.10
11083;DHT22;5595;50.186;8.468;2023-06-10T07:26:35;24.10;76.20
11083;DHT22;5595;50.186;8.468;2023-06-10T07:29:02;24.10;76.00
11083;DHT22;5595;50.186;8.468;2023-06-10T07:31:29;24.30;76.50
11083;DHT22;5595;50.186;8.468;2023-06-10T07:33:55;24.30;76.20
11083;DHT22;5595;50.186;8.468;2023-06-10T07:36:22;24.40;75.20
11083;DHT22;5595;50.186;8.468;2023-06-10T07:38:51;24.40;75.00
11083;DHT22;5595;50.186;8.468;2023-06-10T07:41:17;24.40;75.20
11083;DHT22;5595;50.186;8.468;2023-06-10T07:43:44;24.50;74.30
11083;DHT22;5595;50.186;8.468;2023-06-10T07:46:11;24.50;74.40
11083;DHT22;5595;50.186;8.468;2023-06-10T07:48:38;24.50;73.90
11083;DHT22;5595;50.186;8.468;2023-06-10T07:51:05;24.50;74.10
11083;DHT22;5595;50.186;8.468;2023-06-10T07:53:31;24.60;74.10
11083;DHT22;5595;50.186;8.468;2023-06-10T07:56:00;24.70;73.30
11083;DHT22;5595;50.186;8.468;2023-06-10T07:58:26;24.80;73.10
11083;DHT22;5595;50.186;8.468;2023-06-10T08:00:54;24.90;72.90
11083;DHT22;5595;50.186;8.468;2023-06-10T08:03:20;24.90;72.10
11083;DHT22;5595;50.186;8.468;2023-06-10T08:05:47;25.00;72.20
11083;DHT22;5595;50.186;8.468;2023-06-10T08:08:14;25.10;72.10
11083;DHT22;5595;50.186;8.468;2023-06-10T08:10:41;25.20;70.70
11083;DHT22;5595;50.186;8.468;2023-06-10T08:13:09;25.10;70.70
11083;DHT22;5595;50.186;8.468;2023-06-10T08:15:36;25.10;71.30
11083;DHT22;5595;50.186;8.468;2023-06-10T08:18:03;25.30;71.40
11083;DHT22;5595;50.186;8.468;2023-06-10T08:20:32;25.40;71.50
11083;DHT22;5595;50.186;8.468;2023-06-10T08:22:58;25.50;71.00
11083;DHT22;5595;50.186;8.468;2023-06-10T08:25:25;25.50;71.30
11083;DHT22;5595;50.186;8.468;2023-06-10T08:27:52;25.60;71.00
11083;DHT22;5595;50.186;8.468;2023-06-10T08:30:23;25.70;68.50
11083;DHT22;5595;50.186;8.468;2023-06-10T08:32:50;25.70;69.30
11083;DHT22;5595;50.186;8.468;2023-06-10T08:35:17;25.70;69.00
11083;DHT22;5595;50.186;8.468;2023-06-10T08:37:44;25.60;69.40
11083;DHT22;5595;50.186;8.468;2023-06-10T08:40:12;25.70;68.20
11083;DHT22;5595;50.186;8.468;2023-06-10T08:42:41;25.70;68.50
11083;DHT22;5595;50.186;8.468;2023-06-10T08:45:15;25.70;67.90
11083;DHT22;5595;50.186;8.468;2023-06-10T08:47:44;25.80;67.90
11083;DHT22;5595;50.186;8.468;2023-06-10T08:50:11;25.80;67.90
11083;DHT22;5595;50.186;8.468;2023-06-10T08:52:43;25.90;67.60
11083;DHT22;5595;50.186;8.468;2023-06-10T08:55:12;26.00;68.10
11083;DHT22;5595;50.186;8.468;2023-06-10T08:57:41;26.10;67.40
11083;DHT22;5595;50.186;8.468;2023-06-10T09:00:11;26.10;67.40
11083;DHT22;5595;50.186;8.468;2023-06-10T09:02:38;26.10;66.00
11083;DHT22;5595;50.186;8.468;2023-06-10T09:05:08;26.10;65.20
11083;DHT22;5595;50.186;8.468;2023-06-10T09:07:35;26.20;66.10
11083;DHT22;5595;50.186;8.468;2023-06-10T09:10:03;26.20;65.60
11083;DHT22;5595;50.186;8.468;2023-06-10T09:12:32;26.00;65.40
11083;DHT22;5595;50.186;8.468;2023-06-10T09:14:59;26.10;65.70
11083;DHT22;5595;50.186;8.468;2023-06-10T09:17:26;26.10;65.90
11083;DHT22;5595;50.186;8.468;2023-06-10T09:19:53;26.10;66.00
11083;DHT22;5595;50.186;8.468;2023-06-10T09:22:22;26.20;66.30
11083;DHT22;5595;50.186;8.468;2023-06-10T09:24:49;26.30;66.80
11083;DHT22;5595;50.186;8.468;2023-06-10T09:27:16;26.30;66.80
11083;DHT22;5595;50.186;8.468;2023-06-10T09:29:46;26.30;67.10
11083;DHT22;5595;50.186;8.468;2023-06-10T09:32:14;26.40;67.00
11083;DHT22;5595;50.186;8.468;2023-06-10T09:34:41;26.40;66.60
11083;DHT22;5595;50.186;8.468;2023-06-10T09:37:08;26.40;66.40
11083;DHT22;5595;50.186;8.468;2023-06-10T09:39:39;26.40;66.80
11083;DHT22;5595;50.186;8.468;2023-06-10T09:42:16;26.50;67.00
11083;DHT22;5595;50.186;8.468;2023-06-10T09:44:49;26.50;66.70
11083;DHT22;5595;50.186;8.468;2023-06-10T09:47:20;26.60;67.00
11083;DHT22;5595;50.186;8.468;2023-06-10T09:49:49;26.60;66.80
11083;DHT22;5595;50.186;8.468;2023-06-10T09:52:21;26.60;66.60
11083;DHT22;5595;50.186;8.468;2023-06-10T09:54:50;26.70;66.90
11083;DHT22;5595;50.186;8.468;2023-06-10T09:57:18;26.70;67.30
11083;DHT22;5595;50.186;8.468;2023-06-10T09:59:45;26.70;65.60
11083;DHT22;5595;50.186;8.468;2023-06-10T10:02:14;26.70;66.30
11083;DHT22;5595;50.186;8.468;2023-06-10T10:04:42;26.90;67.00
11083;DHT22;5595;50.186;8.468;2023-06-10T10:07:09;27.00;67.00
11083;DHT22;5595;50.186;8.468;2023-06-10T10:09:36;27.00;66.40
11083;DHT22;5595;50.186;8.468;2023-06-10T10:12:09;27.10;66.80
11083;DHT22;5595;50.186;8.468;2023-06-10T10:14:37;27.20;66.70
11083;DHT22;5595;50.186;8.468;2023-06-10T10:17:07;27.20;65.60
11083;DHT22;5595;50.186;8.468;2023-06-10T10:19:40;27.10;64.90
11083;DHT22;5595;50.186;8.468;2023-06-10T10:22:14;26.90;64.90
11083;DHT22;5595;50.186;8.468;2023-06-10T10:24:48;26.80;65.20
11083;DHT22;5595;50.186;8.468;2023-06-10T10:27:21;26.80;65.60
11083;DHT22;5595;50.186;8.468;2023-06-10T10:29:52;26.80;65.60
11083;DHT22;5595;50.186;8.468;2023-06-10T10:32:22;26.90;65.90
11083;DHT22;5595;50.186;8.468;2023-06-10T10:34:59;26.90;65.80
11083;DHT22;5595;50.186;8.468;2023-06-10T10:37:28;27.10;65.00
11083;DHT22;5595;50.186;8.468;2023-06-10T10:39:55;27.10;65.40
11083;DHT22;5595;50.186;8.468;2023-06-10T10:42:25;27.20;65.40
11083;DHT22;5595;50.186;8.468;2023-06-10T10:44:52;27.20;65.00
11083;DHT22;5595;50.186;8.468;2023-06-10T10:47:21;27.20;65.00
11083;DHT22;5595;50.186;8.468;2023-06-10T10:49:51;27.20;65.00
11083;DHT22;5595;50.186;8.468;2023-06-10T10:52:18;27.20;64.00
11083;DHT22;5595;50.186;8.468;2023-06-10T10:54:46;27.10;63.60
11083;DHT22;5595;50.186;8.468;2023-06-10T10:57:14;27.20;63.30
11083;DHT22;5595;50.186;8.468;2023-06-10T10:59:51;27.20;63.60
11083;DHT22;5595;50.186;8.468;2023-06-10T11:02:33;27.30;63.70
11083;DHT22;5595;50.186;8.468;2023-06-10T11:05:01;27.30;63.40
11083;DHT22;5595;50.186;8.468;2023-06-10T11:07:30;27.30;63.70
11083;DHT22;5595;50.186;8.468;2023-06-10T11:09:58;27.30;63.20
11083;DHT22;5595;50.186;8.468;2023-06-10T11:12:26;27.30;63.50
11083;DHT22;5595;50.186;8.468;2023-06-10T11:14:57;27.30;63.20
11083;DHT22;5595;50.186;8.468;2023-06-10T11:17:25;27.40;63.40
11083;DHT22;5595;50.186;8.468;2023-06-10T11:19:52;27.50;62.20
11083;DHT22;5595;50.186;8.468;2023-06-10T11:22:19;27.60;62.40
11083;DHT22;5595;50.186;8.468;2023-06-10T11:24:50;27.70;61.80
11083;DHT22;5595;50.186;8.468;2023-06-10T11:27:18;27.70;60.80
11083;DHT22;5595;50.186;8.468;2023-06-10T11:30:21;27.70;60.90
11083;DHT22;5595;50.186;8.468;2023-06-10T11:32:52;27.60;60.60
11083;DHT22;5595;50.186;8.468;2023-06-10T11:35:19;27.70;61.00
11083;DHT22;5595;50.186;8.468;2023-06-10T11:37:47;27.90;61.20
11083;DHT22;5595;50.186;8.468;2023-06-10T11:40:15;28.10;60.50
11083;DHT22;5595;50.186;8.468;2023-06-10T11:42:42;28.20;58.30
11083;DHT22;5595;50.186;8.468;2023-06-10T11:45:14;28.20;58.00
11083;DHT22;5595;50.186;8.468;2023-06-10T11:47:55;28.40;58.10
11083;DHT22;5595;50.186;8.468;2023-06-10T11:50:28;28.60;58.60
11083;DHT22;5595;50.186;8.468;2023-06-10T11:52:55;28.70;57.20
11083;DHT22;5595;50.186;8.468;2023-06-10T11:55:24;28.60;56.30
11083;DHT22;5595;50.186;8.468;2023-06-10T11:57:50;28.60;56.10
11083;DHT22;5595;50.186;8.468;2023-06-10T12:00:23;28.50;55.30
11083;DHT22;5595;50.186;8.468;2023-06-10T12:02:56;28.40;55.90
11083;DHT22;5595;50.186;8.468;2023-06-10T12:05:24;28.40;56.20
11083;DHT22;5595;50.186;8.468;2023-06-10T12:08:08;28.30;56.00
11083;DHT22;5595;50.186;8.468;2023-06-10T12:10:39;28.20;56.30
11083;DHT22;5595;50.186;8.468;2023-06-10T12:13:06;28.30;56.30
11083;DHT22;5595;50.186;8.468;2023-06-10T12:15:33;28.30;56.00
11083;DHT22;5595;50.186;8.468;2023-06-10T12:18:01;28.30;56.20
11083;DHT22;5595;50.186;8.468;2023-06-10T12:20:30;28.30;56.50
11083;DHT22;5595;50.186;8.468;2023-06-10T12:22:58;28.30;56.50
11083;DHT22;5595;50.186;8.468;2023-06-10T12:25:26;28.10;56.00
11083;DHT22;5595;50.186;8.468;2023-06-10T12:27:55;28.00;56.10
11083;DHT22;5595;50.186;8.468;2023-06-10T12:30:23;28.10;56.40
11083;DHT22;5595;50.186;8.468;2023-06-10T12:32:52;28.20;56.30
11083;DHT22;5595;50.186;8.468;2023-06-10T12:35:21;28.20;56.50
11083;DHT22;5595;50.186;8.468;2023-06-10T12:37:56;28.30;57.00
11083;DHT22;5595;50.186;8.468;2023-06-10T12:40:28;28.60;56.50
11083;DHT22;5595;50.186;8.468;2023-06-10T12:42:57;28.70;56.90
11083;DHT22;5595;50.186;8.468;2023-06-10T12:45:27;28.70;56.90
11083;DHT22;5595;50.186;8.468;2023-06-10T12:48:04;28.80;57.00
11083;DHT22;5595;50.186;8.468;2023-06-10T12:50:35;28.80;56.60
11083;DHT22;5595;50.186;8.468;2023-06-10T12:53:02;28.60;57.00
11083;DHT22;5595;50.186;8.468;2023-06-10T12:55:29;28.60;57.40
11083;DHT22;5595;50.186;8.468;2023-06-10T12:57:56;28.60;57.50
11083;DHT22;5595;50.186;8.468;2023-06-10T13:00:23;28.70;57.90
11083;DHT22;5595;50.186;8.468;2023-06-10T13:02:51;28.70;57.90
11083;DHT22;5595;50.186;8.468;2023-06-10T13:05:18;28.80;57.40
11083;DHT22;5595;50.186;8.468;2023-06-10T13:07:47;28.80;57.60
11083;DHT22;5595;50.186;8.468;2023-06-10T13:10:14;28.70;56.30
11083;DHT22;5595;50.186;8.468;2023-06-10T13:12:41;28.50;56.40
11083;DHT22;5595;50.186;8.468;2023-06-10T13:15:09;28.40;56.90
11083;DHT22;5595;50.186;8.468;2023-06-10T13:17:36;28.60;57.10
11083;DHT22;5595;50.186;8.468;2023-06-10T13:20:03;28.60;57.00
11083;DHT22;5595;50.186;8.468;2023-06-10T13:22:31;28.70;57.10
11083;DHT22;5595;50.186;8.468;2023-06-10T13:24:59;28.70;56.90
11083;DHT22;5595;50.186;8.468;2023-06-10T13:27:26;28.70;56.40
11083;DHT22;5595;50.186;8.468;2023-06-10T13:29:53;28.60;56.90
11083;DHT22;5595;50.186;8.468;2023-06-10T13:32:20;28.60;57.30
11083;DHT22;5595;50.186;8.468;2023-06-10T13:34:47;28.70;57.60
11083;DHT22;5595;50.186;8.468;2023-06-10T13:37:15;28.80;57.20
11083;DHT22;5595;50.186;8.468;2023-06-10T13:39:42;28.60;57.00
11083;DHT22;5595;50.186;8.468;2023-06-10T13:42:10;28.50;57.00
11083;DHT22;5595;50.186;8.468;2023-06-10T13:44:37;28.50;57.20
11083;DHT22;5595;50.186;8.468;2023-06-10T13:47:04;28.60;57.70
11083;DHT22;5595;50.186;8.468;2023-06-10T13:49:32;28.70;57.70
11083;DHT22;5595;50.186;8.468;2023-06-10T13:51:59;28.90;57.90
11083;DHT22;5595;50.186;8.468;2023-06-10T13:54:25;28.80;57.00
11083;DHT22;5595;50.186;8.468;2023-06-10T13:56:53;28.70;57.10
11083;DHT22;5595;50.186;8.468;2023-06-10T13:59:21;28.80;57.40
11083;DHT22;5595;50.186;8.468;2023-06-10T14:01:48;29.00;57.50
11083;DHT22;5595;50.186;8.468;2023-06-10T14:04:15;29.30;57.20
11083;DHT22;5595;50.186;8.468;2023-06-10T14:06:43;29.40;56.60
11083;DHT22;5595;50.186;8.468;2023-06-10T14:09:12;29.60;56.80
11083;DHT22;5595;50.186;8.468;2023-06-10T14:11:39;29.60;56.80
11083;DHT22;5595;50.186;8.468;2023-06-10T14:14:07;29.50;56.70
11083;DHT22;5595;50.186;8.468;2023-06-10T14:16:35;29.60;56.90
11083;DHT22;5595;50.186;8.468;2023-06-10T14:19:02;29.60;56.80
11083;DHT22;5595;50.186;8.468;2023-06-10T14:21:28;29.70;56.80
11083;DHT22;5595;50.186;8.468;2023-06-10T14:23:55;29.80;56.90
11083;DHT22;5595;50.186;8.468;2023-06-10T14:26:22;29.60;56.30
11083;DHT22;5595;50.186;8.468;2023-06-10T14:28:49;29.50;56.60
11083;DHT22;5595;50.186;8.468;2023-06-10T14:31:15;29.50;57.00
11083;DHT22;5595;50.186;8.468;2023-06-10T14:33:44;29.40;56.50
11083;DHT22;5595;50.186;8.468;2023-06-10T14:36:10;29.30;56.80
11083;DHT22;5595;50.186;8.468;2023-06-10T14:38:37;29.30;56.90
11083;DHT22;5595;50.186;8.468;2023-06-10T14:41:04;29.30;56.90
11083;DHT22;5595;50.186;8.468;2023-06-10T14:43:31;29.30;56.50
11083;DHT22;5595;50.186;8.468;2023-06-10T14:45:58;29.10;54.80
11083;DHT22;5595;50.186;8.468;2023-06-10T14:48:24;29.00;55.60
11083;DHT22;5595;50.186;8.468;2023-06-10T14:50:53;28.90;56.10
11083;DHT22;5595;50.186;8.468;2023-06-10T14:53:20;28.90;56.30
11083;DHT22;5595;50.186;8.468;2023-06-10T14:55:48;28.90;56.80
11083;DHT22;5595;50.186;8.468;2023-06-10T14:58:15;28.80;56.80
11083;DHT22;5595;50.186;8.468;2023-06-10T15:00:42;28.80;57.00
11083;DHT22;5595;50.186;8.468;2023-06-10T15:03:09;28.90;57.00
11083;DHT22;5595;50.186;8.468;2023-06-10T15:05:35;28.80;56.10
11083;DHT22;5595;50.186;8.468;2023-06-10T15:08:04;28.80;56.00
11083;DHT22;5595;50.186;8.468;2023-06-10T15:10:31;28.70;55.60
11083;DHT22;5595;50.186;8.468;2023-06-10T15:12:58;28.60;55.50
11083;DHT22;5595;50.186;8.468;2023-06-10T15:15:25;28.60;56.10
11083;DHT22;5595;50.186;8.468;2023-06-10T15:17:52;28.60;55.70
11083;DHT22;5595;50.186;8.468;2023-06-10T15:20:19;28.60;56.00
11083;DHT22;5595;50.186;8.468;2023-06-10T15:22:46;28.60;56.10
11083;DHT22;5595;50.186;8.468;2023-06-10T15:25:14;28.70;56.60
11083;DHT22;5595;50.186;8.468;2023-06-10T15:27:41;28.70;56.30
11083;DHT22;5595;50.186;8.468;2023-06-10T15:30:08;28.70;56.20
11083;DHT22;5595;50.186;8.468;2023-06-10T15:32:35;28.50;56.00
11083;DHT22;5595;50.186;8.468;2023-06-10T15:35:02;28.30;56.00
11083;DHT22;5595;50.186;8.468;2023-06-10T15:37:29;28.20;56.20
11083;DHT22;5595;50.186;8.468;2023-06-10T15:39:56;28.10;56.20
11083;DHT22;5595;50.186;8.468;2023-06-10T15:42:24;28.10;56.30
11083;DHT22;5595;50.186;8.468;2023-06-10T15:44:51;28.20;56.60
11083;DHT22;5595;50.186;8.468;2023-06-10T15:47:18;28.20;56.60
11083;DHT22;5595;50.186;8.468;2023-06-10T15:49:45;28.20;56.70